Time;durP1;ratioP1;P1;durP2;ratioP2;P2;SDS_P1;SDS_P2;PMS_P1;PMS_P2;Temp;Humidity;BMP_temperature;BMP_pressure;BME280_temperature;BME280_humidity;BME280_pressure;Samples;Min_cycle;Max_cycle;Signal;HPM_P1;HPM_P2
2022/03/27 00:04:16;;;;;;;21.65;8.43;;;;;;;;;;10402257;28;20041;-66
2022/03/27 00:09:18;;;;;;;19.35;8.88;;;;;;;;;;10402522;28;20045;-67
2022/03/27 00:14:19;;;;;;;24.95;8.82;;;;;;;;;;10401555;28;20505;-66
2022/03/27 00:19:20;;;;;;;20.02;9.10;;;;;;;;;;10401629;28;20055;-66
2022/03/27 00:24:22;;;;;;;27.23;9.40;;;;;;;;;;10401070;28;20141;-67
2022/03/27 00:29:23;;;;;;;23.70;9.35;;;;;;;;;;10401240;28;20515;-66
2022/03/27 00:34:25;;;;;;;20.92;9.30;;;;;;;;;;10400589;28;20603;-67
2022/03/27 00:39:26;;;;;;;23.85;10.38;;;;;;;;;;10401429;28;20061;-66
2022/03/27 00:44:28;;;;;;;25.60;10.30;;;;;;;;;;10400632;28;20037;-66
2022/03/27 00:49:29;;;;;;;27.35;11.00;;;;;;;;;;10400140;28;20083;-66
2022/03/27 00:54:30;;;;;;;23.02;10.25;;;;;;;;;;10400395;28;20047;-66
2022/03/27 00:59:32;;;;;;;29.30;10.07;;;;;;;;;;10399047;28;20152;-67
2022/03/27 01:04:34;;;;;;;28.10;9.95;;;;;;;;;;10399471;28;20555;-66
2022/03/27 01:09:35;;;;;;;26.42;9.20;;;;;;;;;;10399600;28;20406;-66
2022/03/27 01:14:36;;;;;;;22.23;10.18;;;;;;;;;;10398882;28;20420;-66
2022/03/27 01:19:42;;;;;;;23.70;8.25;;;;;;;;;;10398789;28;20412;-66
2022/03/27 01:24:44;;;;;;;18.25;6.88;;;;;;;;;;10397980;28;20069;-67
2022/03/27 01:29:46;;;;;;;21.33;8.80;;;;;;;;;;10398010;28;20053;-66
2022/03/27 01:34:48;;;;;;;23.27;9.18;;;;;;;;;;10398221;28;20583;-67
2022/03/27 01:39:49;;;;;;;20.48;8.52;;;;;;;;;;10398086;28;20304;-66
2022/03/27 01:44:51;;;;;;;20.35;8.00;;;;;;;;;;10398505;28;20499;-66
2022/03/27 01:49:52;;;;;;;24.85;7.18;;;;;;;;;;10397031;28;20057;-67
2022/03/27 01:54:54;;;;;;;22.60;6.35;;;;;;;;;;10391602;28;20050;-67
2022/03/27 01:59:56;;;;;;;22.23;7.40;;;;;;;;;;10396811;28;20045;-67
2022/03/27 02:04:57;;;;;;;23.77;6.25;;;;;;;;;;10396339;28;20049;-67
2022/03/27 02:09:58;;;;;;;25.60;6.95;;;;;;;;;;10397227;28;20069;-67
2022/03/27 02:15:00;;;;;;;19.48;6.82;;;;;;;;;;10395102;28;20531;-67
2022/03/27 02:20:01;;;;;;;20.60;6.18;;;;;;;;;;10396667;28;20088;-67
2022/03/27 02:25:04;;;;;;;21.75;5.55;;;;;;;;;;10395952;28;20148;-67
2022/03/27 02:30:07;;;;;;;23.63;5.93;;;;;;;;;;10396818;28;20052;-67
2022/03/27 02:35:08;;;;;;;19.48;5.63;;;;;;;;;;10396661;28;20124;-67
2022/03/27 02:40:10;;;;;;;24.33;5.18;;;;;;;;;;10396281;28;20042;-67
2022/03/27 02:45:11;;;;;;;22.95;5.53;;;;;;;;;;10396158;28;20041;-67
2022/03/27 02:50:13;;;;;;;19.95;5.50;;;;;;;;;;10396327;28;20515;-67
2022/03/27 02:55:14;;;;;;;27.20;5.30;;;;;;;;;;10396045;28;20102;-67
2022/03/27 03:00:16;;;;;;;22.70;5.50;;;;;;;;;;10395006;28;20076;-67
2022/03/27 03:05:18;;;;;;;24.40;5.65;;;;;;;;;;10396170;28;20046;-67
2022/03/27 03:10:19;;;;;;;24.15;5.57;;;;;;;;;;10395673;28;20041;-66
2022/03/27 03:15:22;;;;;;;28.48;5.57;;;;;;;;;;10395888;28;20048;-68
2022/03/27 03:20:24;;;;;;;22.73;5.97;;;;;;;;;;10395373;28;20400;-67
2022/03/27 03:25:25;;;;;;;23.38;5.65;;;;;;;;;;10396403;28;20048;-67
2022/03/27 03:30:27;;;;;;;20.70;4.82;;;;;;;;;;10396027;28;20135;-67
2022/03/27 03:35:28;;;;;;;17.13;4.75;;;;;;;;;;10400047;28;20045;-68
2022/03/27 03:40:42;;;;;;;25.25;4.68;;;;;;;;;;10403361;28;20591;-67
2022/03/27 03:45:43;;;;;;;26.00;5.68;;;;;;;;;;10402635;28;20042;-67
2022/03/27 03:50:45;;;;;;;29.95;5.50;;;;;;;;;;10401585;28;20424;-67
2022/03/27 03:55:46;;;;;;;22.20;4.93;;;;;;;;;;10401221;28;20033;-67
2022/03/27 04:00:50;;;;;;;21.40;5.22;;;;;;;;;;10401090;28;20417;-67
2022/03/27 04:05:51;;;;;;;22.63;5.32;;;;;;;;;;10401712;28;20069;-66
2022/03/27 04:10:52;;;;;;;26.80;5.07;;;;;;;;;;10401054;28;20580;-67
2022/03/27 04:15:54;;;;;;;31.02;5.82;;;;;;;;;;10400833;28;20056;-67
2022/03/27 04:20:56;;;;;;;18.83;4.07;;;;;;;;;;10400260;28;20054;-67
2022/03/27 04:25:58;;;;;;;29.88;5.93;;;;;;;;;;10399192;28;20049;-67
2022/03/27 04:30:59;;;;;;;23.42;5.40;;;;;;;;;;10400088;28;20049;-67
2022/03/27 04:36:02;;;;;;;25.10;5.88;;;;;;;;;;10400303;28;20072;-67
2022/03/27 04:41:04;;;;;;;27.00;6.82;;;;;;;;;;10401412;28;20045;-67
2022/03/27 04:46:07;;;;;;;24.92;5.32;;;;;;;;;;10400833;28;20042;-66
2022/03/27 04:51:09;;;;;;;28.17;6.10;;;;;;;;;;10398558;28;20461;-67
2022/03/27 04:56:10;;;;;;;23.77;5.75;;;;;;;;;;10399375;28;20230;-67
2022/03/27 05:01:11;;;;;;;20.65;5.70;;;;;;;;;;10398705;28;20123;-67
2022/03/27 05:06:13;;;;;;;25.65;5.65;;;;;;;;;;10400011;28;20380;-67
2022/03/27 05:11:15;;;;;;;29.95;5.40;;;;;;;;;;10397788;28;20049;-67
2022/03/27 05:16:16;;;;;;;25.90;7.10;;;;;;;;;;10398768;28;20041;-67
2022/03/27 05:21:17;;;;;;;23.92;5.50;;;;;;;;;;10398006;28;20618;-67
2022/03/27 05:26:19;;;;;;;24.33;6.32;;;;;;;;;;10398381;28;20389;-67
2022/03/27 05:31:21;;;;;;;20.25;5.82;;;;;;;;;;10398448;28;20535;-67
2022/03/27 05:36:22;;;;;;;25.60;5.78;;;;;;;;;;10399564;28;20049;-67
2022/03/27 05:41:24;;;;;;;23.70;5.38;;;;;;;;;;10391946;28;20079;-67
2022/03/27 05:46:25;;;;;;;29.77;6.25;;;;;;;;;;10398399;28;20129;-67
2022/03/27 05:51:27;;;;;;;25.88;6.57;;;;;;;;;;10396566;28;20303;-67
2022/03/27 05:56:28;;;;;;;24.65;6.03;;;;;;;;;;10396294;28;20045;-67
2022/03/27 06:01:29;;;;;;;28.20;6.22;;;;;;;;;;10397346;28;20060;-67
2022/03/27 06:06:31;;;;;;;26.70;5.70;;;;;;;;;;10396976;28;20140;-67
2022/03/27 06:11:33;;;;;;;24.42;5.68;;;;;;;;;;10396972;28;20050;-67
2022/03/27 06:16:35;;;;;;;26.02;5.15;;;;;;;;;;10397337;28;20551;-67
2022/03/27 06:21:36;;;;;;;21.63;5.22;;;;;;;;;;10396298;28;20068;-68
2022/03/27 06:26:41;;;;;;;28.17;5.75;;;;;;;;;;10397425;28;20116;-68
2022/03/27 06:31:42;;;;;;;29.13;6.78;;;;;;;;;;10396090;28;20429;-67
2022/03/27 06:36:44;;;;;;;27.27;5.97;;;;;;;;;;10394568;28;20049;-67
2022/03/27 06:41:46;;;;;;;29.50;5.20;;;;;;;;;;10395360;28;20050;-66
2022/03/27 06:46:48;;;;;;;25.95;5.95;;;;;;;;;;10398540;28;20152;-67
2022/03/27 06:51:50;;;;;;;27.08;4.70;;;;;;;;;;10396756;28;20056;-67
2022/03/27 06:56:51;;;;;;;28.05;5.50;;;;;;;;;;10397431;28;20364;-67
2022/03/27 07:07:13;;;;;;;30.73;6.00;;;;;;;;;;10397533;28;20049;-67
2022/03/27 07:12:14;;;;;;;24.10;5.47;;;;;;;;;;10399201;28;20064;-67
2022/03/27 07:17:19;;;;;;;25.90;5.35;;;;;;;;;;10402659;28;20099;-67
2022/03/27 07:22:20;;;;;;;20.55;4.75;;;;;;;;;;10374384;28;20072;-67
2022/03/27 07:27:21;;;;;;;24.40;4.90;;;;;;;;;;10387354;28;20041;-67
2022/03/27 07:32:23;;;;;;;31.23;6.38;;;;;;;;;;10391855;28;20049;-67
2022/03/27 07:37:25;;;;;;;32.83;6.55;;;;;;;;;;10386713;28;20053;-67
2022/03/27 07:42:26;;;;;;;29.45;6.85;;;;;;;;;;10391130;28;20047;-66
2022/03/27 07:47:27;;;;;;;20.98;5.40;;;;;;;;;;10389396;28;20057;-66
2022/03/27 07:52:29;;;;;;;34.45;5.78;;;;;;;;;;10389315;28;20048;-66
2022/03/27 07:57:30;;;;;;;31.10;7.25;;;;;;;;;;10400864;28;20045;-66
2022/03/27 08:02:32;;;;;;;21.67;6.22;;;;;;;;;;10394977;28;21401;-66
2022/03/27 08:07:33;;;;;;;36.20;6.57;;;;;;;;;;10397255;28;20045;-66
2022/03/27 08:12:35;;;;;;;27.20;7.57;;;;;;;;;;10389021;28;20049;-66
2022/03/27 08:17:36;;;;;;;24.83;7.05;;;;;;;;;;10393398;28;20073;-65
2022/03/27 08:22:38;;;;;;;32.47;6.97;;;;;;;;;;10378765;28;20038;-66
2022/03/27 08:27:39;;;;;;;24.17;6.30;;;;;;;;;;10384394;28;20132;-67
2022/03/27 08:32:41;;;;;;;32.00;6.25;;;;;;;;;;10398913;28;20509;-67
2022/03/27 08:37:42;;;;;;;32.30;7.07;;;;;;;;;;10395872;28;20041;-67
2022/03/27 08:42:44;;;;;;;30.30;6.85;;;;;;;;;;10395531;28;20061;-67
2022/03/27 08:47:47;;;;;;;38.50;7.50;;;;;;;;;;10395054;28;20224;-67
2022/03/27 08:52:56;;;;;;;30.42;6.65;;;;;;;;;;10396570;28;20072;-66
2022/03/27 08:57:59;;;;;;;30.55;6.70;;;;;;;;;;10398447;28;20508;-67
2022/03/27 09:03:02;;;;;;;33.78;8.15;;;;;;;;;;10399549;28;20152;-67
2022/03/27 09:08:05;;;;;;;36.13;8.75;;;;;;;;;;10399644;28;20056;-67
2022/03/27 09:13:14;;;;;;;27.52;7.25;;;;;;;;;;10399143;28;20055;-68
2022/03/27 09:18:16;;;;;;;26.07;6.97;;;;;;;;;;10382330;28;20045;-67
2022/03/27 09:23:28;;;;;;;38.60;8.98;;;;;;;;;;10396207;28;20045;-67
2022/03/27 09:28:39;;;;;;;29.35;8.48;;;;;;;;;;10399582;28;20045;-74
2022/03/27 09:33:47;;;;;;;30.38;7.45;;;;;;;;;;10391042;28;20406;-69
2022/03/27 09:39:07;;;;;;;29.15;7.28;;;;;;;;;;10398635;28;20225;-67
2022/03/27 09:44:10;;;;;;;24.92;7.38;;;;;;;;;;10397448;28;20053;-67
2022/03/27 09:49:12;;;;;;;28.05;7.68;;;;;;;;;;10391250;28;20440;-66
2022/03/27 09:54:13;;;;;;;23.85;7.05;;;;;;;;;;10397644;28;20056;-65
2022/03/27 09:59:27;;;;;;;33.67;8.60;;;;;;;;;;10398994;28;20463;-65
2022/03/27 10:04:29;;;;;;;24.17;7.38;;;;;;;;;;10386512;28;20049;-66
2022/03/27 10:09:31;;;;;;;25.77;7.57;;;;;;;;;;10390562;28;20069;-66
2022/03/27 10:14:32;;;;;;;29.15;8.25;;;;;;;;;;10398130;28;20052;-67
2022/03/27 10:19:37;;;;;;;33.13;8.23;;;;;;;;;;10390668;28;20509;-66
2022/03/27 10:24:44;;;;;;;29.30;7.75;;;;;;;;;;10383703;28;20053;-64
2022/03/27 10:29:45;;;;;;;24.77;8.55;;;;;;;;;;10397290;28;20048;-65
2022/03/27 10:35:02;;;;;;;32.03;9.63;;;;;;;;;;10400995;28;20440;-65
2022/03/27 10:40:27;;;;;;;24.00;8.02;;;;;;;;;;10396509;28;20064;-65
2022/03/27 10:45:30;;;;;;;35.13;10.80;;;;;;;;;;10389066;28;20050;-66
2022/03/27 10:50:43;;;;;;;33.30;8.90;;;;;;;;;;10404665;28;20823;-66
2022/03/27 10:55:45;;;;;;;28.60;9.38;;;;;;;;;;10399620;28;20045;-65
2022/03/27 11:00:47;;;;;;;34.85;9.15;;;;;;;;;;10404408;28;20045;-66
2022/03/27 11:05:58;;;;;;;28.45;7.82;;;;;;;;;;10405163;28;20049;-67
2022/03/27 11:10:59;;;;;;;29.85;8.43;;;;;;;;;;10394481;28;20049;-66
2022/03/27 11:16:02;;;;;;;25.63;7.85;;;;;;;;;;10343726;28;20041;-65
2022/03/27 11:21:04;;;;;;;24.38;8.77;;;;;;;;;;10348910;28;20492;-66
2022/03/27 11:26:27;;;;;;;30.13;9.05;;;;;;;;;;10356076;28;20041;-65
2022/03/27 11:31:33;;;;;;;19.30;7.72;;;;;;;;;;10350294;28;20065;-65
2022/03/27 11:36:38;;;;;;;25.27;7.82;;;;;;;;;;10349524;28;20054;-67
2022/03/27 11:41:46;;;;;;;34.42;9.82;;;;;;;;;;10358706;28;20152;-67
2022/03/27 11:46:52;;;;;;;21.45;7.43;;;;;;;;;;10383341;28;20052;-67
2022/03/27 11:52:03;;;;;;;24.48;8.05;;;;;;;;;;10382958;28;20049;-67
2022/03/27 11:57:06;;;;;;;30.63;8.35;;;;;;;;;;10380905;28;20157;-67
2022/03/27 12:02:08;;;;;;;28.13;8.07;;;;;;;;;;10376487;28;20560;-67
2022/03/27 12:07:10;;;;;;;23.80;7.72;;;;;;;;;;10393457;28;20321;-67
2022/03/27 12:12:12;;;;;;;27.08;8.15;;;;;;;;;;10387603;28;20046;-68
2022/03/27 12:17:14;;;;;;;28.70;8.13;;;;;;;;;;10388992;28;20128;-67
2022/03/27 12:22:16;;;;;;;30.65;7.85;;;;;;;;;;10386456;28;20528;-66
2022/03/27 12:32:45;;;;;;;27.30;8.50;;;;;;;;;;10380203;28;20038;-67
2022/03/27 12:37:46;;;;;;;27.73;8.15;;;;;;;;;;10389745;28;20052;-67
2022/03/27 12:42:49;;;;;;;25.23;7.80;;;;;;;;;;10387898;28;20041;-67
2022/03/27 12:47:55;;;;;;;24.60;7.43;;;;;;;;;;10379962;28;20568;-67
2022/03/27 12:52:59;;;;;;;22.83;7.72;;;;;;;;;;10387128;28;20330;-67
2022/03/27 12:58:00;;;;;;;31.48;8.63;;;;;;;;;;10388614;28;20056;-67
2022/03/27 13:03:08;;;;;;;27.17;8.90;;;;;;;;;;10391328;28;20042;-67
2022/03/27 13:08:10;;;;;;;23.13;7.80;;;;;;;;;;10391265;28;20072;-67
2022/03/27 13:13:17;;;;;;;25.92;8.27;;;;;;;;;;10386852;28;20042;-67
2022/03/27 13:18:27;;;;;;;21.85;7.10;;;;;;;;;;10387352;28;20350;-66
2022/03/27 13:23:29;;;;;;;30.17;8.82;;;;;;;;;;10386319;28;20053;-67
2022/03/27 13:28:31;;;;;;;27.33;7.18;;;;;;;;;;10383506;28;20046;-66
2022/03/27 13:33:32;;;;;;;26.63;8.60;;;;;;;;;;10383329;28;20054;-67
2022/03/27 13:38:34;;;;;;;26.08;8.00;;;;;;;;;;10378663;28;20492;-67
2022/03/27 13:43:41;;;;;;;24.75;8.05;;;;;;;;;;10390210;28;20072;-67
2022/03/27 13:48:42;;;;;;;27.80;9.05;;;;;;;;;;10385751;28;20485;-67
2022/03/27 13:53:44;;;;;;;23.90;7.68;;;;;;;;;;10385287;28;20037;-67
2022/03/27 13:58:45;;;;;;;29.23;10.40;;;;;;;;;;10388713;28;20682;-66
2022/03/27 14:03:46;;;;;;;23.88;8.75;;;;;;;;;;10389344;28;20041;-67
2022/03/27 14:08:48;;;;;;;29.88;9.50;;;;;;;;;;10383354;28;20049;-66
2022/03/27 14:13:49;;;;;;;24.73;9.02;;;;;;;;;;10389395;28;20051;-67
2022/03/27 14:18:51;;;;;;;34.63;10.43;;;;;;;;;;10377701;28;20041;-66
2022/03/27 14:23:52;;;;;;;23.35;8.63;;;;;;;;;;10378780;28;20049;-67
2022/03/27 14:28:53;;;;;;;23.27;9.10;;;;;;;;;;10384667;28;20053;-67
2022/03/27 14:33:55;;;;;;;28.00;10.15;;;;;;;;;;10384487;28;20060;-67
2022/03/27 14:38:56;;;;;;;22.42;8.65;;;;;;;;;;10377272;28;20057;-67
2022/03/27 14:43:58;;;;;;;24.38;10.23;;;;;;;;;;10379363;28;20042;-67
2022/03/27 14:48:59;;;;;;;20.70;8.98;;;;;;;;;;10382855;28;20049;-67
2022/03/27 14:59:21;;;;;;;;;;;;;;;;;;10378547;28;20417;-67
2022/03/27 15:04:22;;;;;;;24.08;8.98;;;;;;;;;;10380693;28;20185;-67
2022/03/27 15:09:31;;;;;;;20.10;9.37;;;;;;;;;;10380173;28;20049;-68
2022/03/27 15:14:33;;;;;;;20.95;7.95;;;;;;;;;;10379001;28;20046;-67
2022/03/27 15:19:36;;;;;;;19.30;7.32;;;;;;;;;;10384995;28;20052;-67
2022/03/27 15:24:38;;;;;;;20.33;7.10;;;;;;;;;;10382661;28;20047;-67
2022/03/27 15:29:39;;;;;;;25.15;7.32;;;;;;;;;;10372144;28;20041;-67
2022/03/27 15:34:41;;;;;;;26.10;8.15;;;;;;;;;;10385171;28;20048;-67
2022/03/27 15:39:42;;;;;;;27.15;7.90;;;;;;;;;;10386258;28;20048;-67
2022/03/27 15:44:44;;;;;;;18.83;6.28;;;;;;;;;;10382981;28;20046;-66
2022/03/27 15:49:45;;;;;;;23.50;7.90;;;;;;;;;;10385920;28;20045;-66
2022/03/27 15:54:47;;;;;;;23.05;5.35;;;;;;;;;;10390320;28;20041;-66
2022/03/27 15:59:48;;;;;;;24.23;6.25;;;;;;;;;;10387528;28;20056;-67
2022/03/27 16:04:49;;;;;;;22.63;7.35;;;;;;;;;;10388689;28;20045;-67
2022/03/27 16:09:51;;;;;;;22.65;6.18;;;;;;;;;;10379556;28;20045;-67
2022/03/27 16:14:52;;;;;;;19.55;6.15;;;;;;;;;;10381024;28;20041;-67
2022/03/27 16:19:54;;;;;;;25.05;7.25;;;;;;;;;;10390215;28;20045;-67
2022/03/27 16:24:55;;;;;;;23.63;6.40;;;;;;;;;;10384651;28;20061;-67
2022/03/27 16:29:57;;;;;;;16.88;5.65;;;;;;;;;;10387389;28;20045;-66
2022/03/27 16:34:59;;;;;;;24.50;5.65;;;;;;;;;;10392653;28;20049;-67
2022/03/27 16:40:00;;;;;;;18.55;4.50;;;;;;;;;;10392084;28;20460;-67
2022/03/27 16:45:02;;;;;;;16.15;2.42;;;;;;;;;;10387526;28;20042;-67
2022/03/27 16:50:04;;;;;;;8.88;1.77;;;;;;;;;;10389302;28;20053;-67
2022/03/27 16:55:06;;;;;;;8.95;2.22;;;;;;;;;;10388647;28;20046;-67
2022/03/27 17:00:12;;;;;;;11.05;2.22;;;;;;;;;;10377987;28;20377;-67
2022/03/27 17:05:14;;;;;;;10.43;2.50;;;;;;;;;;10381571;28;20041;-67
2022/03/27 17:10:16;;;;;;;14.00;4.18;;;;;;;;;;10385572;28;20073;-66
2022/03/27 17:15:17;;;;;;;6.03;2.03;;;;;;;;;;10388410;28;20045;-67
2022/03/27 17:20:19;;;;;;;10.50;2.50;;;;;;;;;;10381994;28;20046;-66
2022/03/27 17:25:20;;;;;;;14.73;3.45;;;;;;;;;;10381388;28;20449;-66
2022/03/27 17:30:22;;;;;;;20.92;6.30;;;;;;;;;;10379625;28;20152;-67
2022/03/27 17:35:23;;;;;;;12.95;3.88;;;;;;;;;;10390354;28;20037;-69
2022/03/27 17:40:26;;;;;;;16.08;3.22;;;;;;;;;;10377949;28;20042;-69
2022/03/27 17:45:28;;;;;;;9.90;2.13;;;;;;;;;;10385334;28;20599;-69
2022/03/27 17:50:29;;;;;;;10.73;2.17;;;;;;;;;;10378559;28;20041;-68
2022/03/27 17:55:31;;;;;;;11.50;2.10;;;;;;;;;;10379411;28;20064;-69
2022/03/27 18:00:32;;;;;;;16.13;2.20;;;;;;;;;;10376434;28;20364;-68
2022/03/27 18:05:36;;;;;;;14.13;2.53;;;;;;;;;;10382325;28;20040;-68
2022/03/27 18:10:38;;;;;;;15.70;2.78;;;;;;;;;;10388513;28;20049;-69
2022/03/27 18:15:39;;;;;;;18.33;2.80;;;;;;;;;;10385329;28;20137;-68
2022/03/27 18:20:41;;;;;;;15.10;2.53;;;;;;;;;;10374421;28;20099;-68
2022/03/27 18:25:43;;;;;;;14.77;1.80;;;;;;;;;;10387821;28;20420;-69
2022/03/27 18:30:45;;;;;;;18.58;3.05;;;;;;;;;;10378310;28;20056;-67
2022/03/27 18:35:46;;;;;;;14.15;2.03;;;;;;;;;;10386161;28;20528;-68
2022/03/27 18:40:48;;;;;;;20.48;3.30;;;;;;;;;;10384331;28;20050;-68
2022/03/27 18:45:50;;;;;;;17.48;3.20;;;;;;;;;;10377110;28;20044;-67
2022/03/27 18:50:52;;;;;;;19.63;3.40;;;;;;;;;;10377070;28;20048;-68
2022/03/27 18:55:53;;;;;;;21.77;4.15;;;;;;;;;;10382599;28;20505;-67
2022/03/27 19:00:55;;;;;;;25.83;3.35;;;;;;;;;;10381430;28;20056;-67
2022/03/27 19:05:56;;;;;;;27.52;4.45;;;;;;;;;;10394803;28;20127;-67
2022/03/27 19:10:58;;;;;;;20.35;3.47;;;;;;;;;;10389110;28;20060;-67
2022/03/27 19:16:00;;;;;;;26.73;5.05;;;;;;;;;;10388811;28;20037;-68
2022/03/27 19:21:13;;;;;;;30.40;5.05;;;;;;;;;;10390543;28;20212;-69
2022/03/27 19:26:15;;;;;;;18.95;3.35;;;;;;;;;;10391756;28;20049;-67
2022/03/27 19:31:17;;;;;;;22.42;3.33;;;;;;;;;;10376732;28;20053;-68
2022/03/27 19:36:21;;;;;;;20.25;4.10;;;;;;;;;;10389433;28;20049;-68
2022/03/27 19:41:24;;;;;;;18.45;3.50;;;;;;;;;;10388217;28;20063;-67
2022/03/27 19:46:26;;;;;;;16.25;3.40;;;;;;;;;;10385769;28;20080;-69
2022/03/27 19:51:27;;;;;;;11.77;3.83;;;;;;;;;;10384815;28;20550;-68
2022/03/27 19:56:29;;;;;;;10.73;3.75;;;;;;;;;;10393169;28;20519;-68
2022/03/27 20:01:30;;;;;;;7.78;3.80;;;;;;;;;;10389171;28;20120;-68
2022/03/27 20:06:32;;;;;;;10.05;4.25;;;;;;;;;;10392959;28;20402;-67
2022/03/27 20:11:33;;;;;;;9.65;5.15;;;;;;;;;;10392595;28;20056;-68
2022/03/27 20:16:35;;;;;;;11.00;5.72;;;;;;;;;;10381667;28;20539;-67
2022/03/27 20:21:36;;;;;;;11.75;5.88;;;;;;;;;;10394074;28;20337;-68
2022/03/27 20:26:38;;;;;;;14.95;6.78;;;;;;;;;;10393885;28;20042;-67
2022/03/27 20:31:39;;;;;;;16.30;6.53;;;;;;;;;;10387612;28;20038;-67
2022/03/27 20:36:41;;;;;;;13.25;6.70;;;;;;;;;;10392322;28;20029;-68
2022/03/27 20:41:43;;;;;;;14.85;6.38;;;;;;;;;;10388607;28;20871;-67
2022/03/27 20:46:44;;;;;;;14.32;6.20;;;;;;;;;;10384862;28;20057;-67
2022/03/27 20:51:45;;;;;;;17.52;7.38;;;;;;;;;;10387469;28;20061;-67
2022/03/27 20:56:48;;;;;;;15.75;7.15;;;;;;;;;;10394105;28;20052;-67
2022/03/27 21:01:49;;;;;;;14.82;6.55;;;;;;;;;;10390154;28;20588;-67
2022/03/27 21:06:55;;;;;;;14.35;6.10;;;;;;;;;;10395112;28;20037;-66
2022/03/27 21:11:56;;;;;;;;;;;;;;;;;;10390172;28;20288;-67
2022/03/27 21:17:02;;;;;;;17.70;7.53;;;;;;;;;;10393474;28;19931;-67
2022/03/27 21:22:04;;;;;;;16.42;7.78;;;;;;;;;;10385573;28;20518;-66
2022/03/27 21:27:06;;;;;;;12.02;6.05;;;;;;;;;;10388278;28;20053;-67
2022/03/27 21:32:08;;;;;;;14.57;6.43;;;;;;;;;;10385498;28;20514;-66
2022/03/27 21:37:09;;;;;;;13.35;6.78;;;;;;;;;;10381980;28;20309;-67
2022/03/27 21:42:15;;;;;;;15.85;7.57;;;;;;;;;;10380241;28;20149;-67
2022/03/27 21:47:17;;;;;;;14.80;7.88;;;;;;;;;;10381164;28;20053;-68
2022/03/27 21:52:19;;;;;;;13.23;6.43;;;;;;;;;;10390641;28;20501;-67
2022/03/27 21:57:20;;;;;;;14.80;6.90;;;;;;;;;;10386572;28;20083;-67
2022/03/27 22:02:22;;;;;;;12.38;6.65;;;;;;;;;;10390071;28;20053;-67
2022/03/27 22:07:23;;;;;;;13.50;6.45;;;;;;;;;;10393345;28;20548;-66
2022/03/27 22:12:25;;;;;;;19.60;8.32;;;;;;;;;;10385825;28;20050;-67
2022/03/27 22:17:26;;;;;;;19.77;9.55;;;;;;;;;;10385284;28;20233;-66
2022/03/27 22:22:28;;;;;;;18.08;9.50;;;;;;;;;;10394090;28;20232;-68
2022/03/27 22:27:29;;;;;;;20.98;10.55;;;;;;;;;;10378457;28;20046;-67
2022/03/27 22:32:31;;;;;;;19.95;9.90;;;;;;;;;;10383552;28;20051;-66
2022/03/27 22:37:33;;;;;;;19.83;9.55;;;;;;;;;;10379590;28;20135;-68
2022/03/27 22:42:34;;;;;;;21.30;11.30;;;;;;;;;;10391032;28;20046;-67
2022/03/27 22:47:35;;;;;;;20.80;10.98;;;;;;;;;;10396885;28;20528;-67
2022/03/27 22:52:37;;;;;;;31.90;11.48;;;;;;;;;;10400402;28;20042;-67
2022/03/27 22:57:38;;;;;;;27.58;10.75;;;;;;;;;;10393320;28;20525;-67
2022/03/27 23:02:40;;;;;;;27.52;11.13;;;;;;;;;;10393198;28;20041;-67
2022/03/27 23:07:42;;;;;;;22.45;10.65;;;;;;;;;;10393037;28;20052;-68
2022/03/27 23:12:44;;;;;;;24.98;10.13;;;;;;;;;;10392547;28;20050;-67
2022/03/27 23:17:45;;;;;;;23.40;9.40;;;;;;;;;;10390497;28;20041;-67
2022/03/27 23:22:47;;;;;;;21.90;8.73;;;;;;;;;;10384966;28;20068;-67
2022/03/27 23:27:48;;;;;;;18.85;7.97;;;;;;;;;;10393277;28;20316;-67
2022/03/27 23:32:49;;;;;;;16.30;7.40;;;;;;;;;;10396327;28;20069;-67
2022/03/27 23:37:51;;;;;;;21.77;6.80;;;;;;;;;;10395273;28;20277;-68
2022/03/27 23:42:53;;;;;;;14.50;6.68;;;;;;;;;;10394890;28;20042;-68
2022/03/27 23:47:54;;;;;;;17.05;6.05;;;;;;;;;;10392991;28;20433;-67
2022/03/27 23:52:55;;;;;;;15.95;6.75;;;;;;;;;;10393403;28;20551;-67
2022/03/27 23:57:58;;;;;;;15.55;6.93;;;;;;;;;;10393497;28;20048;-67
